createdAt,value
2022-10-16T00:05:33.878Z,1012.64
2022-10-16T00:15:40.886Z,1012.81
2022-10-16T00:25:48.192Z,1012.73
2022-10-16T00:35:55.344Z,1012.89
2022-10-16T00:46:01.888Z,1012.98
2022-10-16T00:56:08.796Z,1012.99
2022-10-16T01:06:16.009Z,1013.02
2022-10-16T01:16:23.113Z,1013.05
2022-10-16T01:26:30.180Z,1013.14
2022-10-16T01:36:37.035Z,1013.30
2022-10-16T01:46:43.114Z,1013.30
2022-10-16T01:56:49.667Z,1013.34
2022-10-16T02:06:56.780Z,1013.49
2022-10-16T02:17:03.384Z,1013.51
2022-10-16T02:27:09.717Z,1013.69
2022-10-16T02:37:16.857Z,1013.55
2022-10-16T02:47:23.951Z,1013.65
2022-10-16T02:57:30.359Z,1013.64
2022-10-16T03:07:37.387Z,1013.75
2022-10-16T03:17:44.441Z,1013.97
2022-10-16T03:27:51.442Z,1013.93
2022-10-16T03:37:58.700Z,1014.14
2022-10-16T03:48:05.650Z,1014.32
2022-10-16T03:58:12.418Z,1014.39
2022-10-16T04:08:18.605Z,1014.49
2022-10-16T04:18:25.075Z,1014.64
2022-10-16T04:28:31.333Z,1014.64
2022-10-16T04:38:38.269Z,1014.50
2022-10-16T04:48:45.109Z,1014.33
2022-10-16T04:58:52.360Z,1014.47
2022-10-16T05:08:59.296Z,1014.65
2022-10-16T05:19:31.746Z,1014.94
2022-10-16T05:29:17.965Z,1014.92
2022-10-16T05:39:24.938Z,1014.81
2022-10-16T05:49:32.040Z,1014.85
2022-10-16T05:59:38.801Z,1015.03
2022-10-16T06:09:44.936Z,1015.05
2022-10-16T06:19:52.204Z,1015.18
2022-10-16T06:29:59.439Z,1015.25
2022-10-16T06:40:05.470Z,1015.29
2022-10-16T06:50:12.466Z,1015.56
2022-10-16T07:00:19.036Z,1015.66
2022-10-16T07:10:25.560Z,1015.65
2022-10-16T07:20:32.237Z,1015.96
2022-10-16T07:30:39.311Z,1015.89
2022-10-16T07:40:46.131Z,1015.84
2022-10-16T07:50:52.997Z,1015.95
2022-10-16T08:00:59.945Z,1016.03
2022-10-16T08:11:07.110Z,1016.18
2022-10-16T08:21:18.476Z,1016.35
2022-10-16T08:31:25.194Z,1016.28
2022-10-16T08:41:32.293Z,1016.30
2022-10-16T08:51:41.801Z,1016.30
2022-10-16T09:01:51.252Z,1016.35
2022-10-16T09:11:58.292Z,1016.53
2022-10-16T09:22:05.367Z,1016.73
2022-10-16T09:32:12.112Z,1016.65
2022-10-16T09:42:19.190Z,1016.73
2022-10-16T09:52:26.349Z,1016.83
2022-10-16T10:02:32.611Z,1016.96
2022-10-16T10:12:38.611Z,1017.07
2022-10-16T10:22:45.229Z,1017.20
2022-10-16T10:32:51.840Z,1017.19
2022-10-16T10:42:57.876Z,1017.26
2022-10-16T10:53:04.262Z,1017.37
2022-10-16T11:03:10.359Z,1017.42
2022-10-16T11:13:16.585Z,1017.40
2022-10-16T11:23:23.134Z,1017.38
2022-10-16T11:33:30.104Z,1017.42
2022-10-16T11:43:36.839Z,1017.45
2022-10-16T11:53:44.570Z,1017.41
2022-10-16T12:03:51.656Z,1017.49
2022-10-16T12:13:58.554Z,1017.55
2022-10-16T12:24:05.424Z,1017.71
2022-10-16T12:34:11.854Z,1017.72
2022-10-16T12:44:18.314Z,1017.76
2022-10-16T12:54:24.681Z,1017.84
2022-10-16T13:04:30.983Z,1017.96
2022-10-16T13:14:37.285Z,1018.07
2022-10-16T13:24:43.797Z,1018.20
2022-10-16T13:34:50.242Z,1018.28
2022-10-16T13:44:56.689Z,1018.34
2022-10-16T13:55:03.176Z,1018.35
2022-10-16T14:05:09.796Z,1018.47
2022-10-16T14:15:16.156Z,1018.51
2022-10-16T14:25:22.110Z,1018.62
2022-10-16T14:35:28.808Z,1018.66
2022-10-16T14:45:35.853Z,1018.64
2022-10-16T14:55:42.381Z,1018.72
2022-10-16T15:05:49.123Z,1018.76
2022-10-16T15:15:55.668Z,1018.80
2022-10-16T15:26:01.930Z,1019.03
2022-10-16T15:36:08.148Z,1019.13
2022-10-16T15:46:15.056Z,1019.31
2022-10-16T15:56:22.017Z,1019.47
2022-10-16T16:06:30.427Z,1019.57
2022-10-16T16:16:37.536Z,1019.75
2022-10-16T16:26:44.439Z,1019.89
2022-10-16T16:36:51.329Z,1020.05
2022-10-16T16:46:58.231Z,1020.15
2022-10-16T16:57:05.424Z,1020.38
2022-10-16T17:07:12.215Z,1020.68
2022-10-16T17:17:19.436Z,1020.69
2022-10-16T17:27:26.109Z,1020.88
2022-10-16T17:37:32.309Z,1021.05
2022-10-16T17:47:39.290Z,1021.30
2022-10-16T17:57:45.632Z,1021.28
2022-10-16T18:07:52.509Z,1021.25
2022-10-16T18:17:59.256Z,1021.41
2022-10-16T18:28:05.888Z,1021.56
2022-10-16T18:38:13.040Z,1021.60
2022-10-16T18:48:19.889Z,1021.80
2022-10-16T18:58:26.499Z,1021.98
2022-10-16T19:08:33.236Z,1021.94
2022-10-16T19:18:39.695Z,1021.92
2022-10-16T19:28:46.680Z,1022.01
2022-10-16T19:38:53.942Z,1021.99
2022-10-16T19:49:00.377Z,1022.11
2022-10-16T19:59:07.040Z,1022.22
2022-10-16T20:09:13.690Z,1022.45
2022-10-16T20:19:20.837Z,1022.62
2022-10-16T20:29:28.341Z,1022.83
2022-10-16T20:39:35.159Z,1022.79
2022-10-16T20:49:41.594Z,1022.97
2022-10-16T20:59:47.826Z,1022.81
2022-10-16T21:09:53.704Z,1022.88
2022-10-16T21:19:59.942Z,1022.89
2022-10-16T21:30:06.138Z,1023.01
2022-10-16T21:40:12.642Z,1023.18
2022-10-16T21:50:18.795Z,1023.37
2022-10-16T22:00:25.977Z,1023.48
2022-10-16T22:10:32.825Z,1023.43
2022-10-16T22:20:39.964Z,1023.26
2022-10-16T22:30:46.714Z,1023.47
2022-10-16T22:40:53.611Z,1023.33
2022-10-16T22:51:00.385Z,1023.48
2022-10-16T23:01:07.384Z,1023.45
2022-10-16T23:11:14.210Z,1023.57
2022-10-16T23:21:21.026Z,1023.52
2022-10-16T23:31:28.201Z,1023.54
2022-10-16T23:41:35.133Z,1023.51
2022-10-16T23:51:41.636Z,1023.53
